Time;durP1;ratioP1;P1;durP2;ratioP2;P2;SDS_P1;SDS_P2;PMS_P1;PMS_P2;Temp;Humidity;BMP_temperature;BMP_pressure;BME280_temperature;BME280_humidity;BME280_pressure;Samples;Min_cycle;Max_cycle;Signal;HPM_P1;HPM_P2
2023/04/04 00:02:10;;;;;;;;;6.50;5.50;;;;;;;;5073722;27;45559;-61
2023/04/04 00:04:37;;;;;;;;;5.00;5.00;;;;;;;;5074216;27;45559;-61
2023/04/04 00:07:05;;;;;;;;;7.00;7.00;;;;;;;;5074298;27;45489;-61
2023/04/04 00:09:30;;;;;;;;;6.50;6.50;;;;;;;;5073889;27;45500;-61
2023/04/04 00:11:55;;;;;;;;;10.75;7.00;;;;;;;;5073216;27;45707;-61
2023/04/04 00:14:21;;;;;;;;;5.00;5.00;;;;;;;;5071112;27;45556;-60
2023/04/04 00:16:48;;;;;;;;;5.25;5.25;;;;;;;;5066173;27;45456;-62
2023/04/04 00:19:17;;;;;;;;;8.75;7.00;;;;;;;;5066392;28;46210;-60
2023/04/04 00:21:43;;;;;;;;;6.00;6.00;;;;;;;;5068565;27;45501;-60
2023/04/04 00:24:09;;;;;;;;;6.00;6.00;;;;;;;;5074012;27;46066;-60
2023/04/04 00:26:35;;;;;;;;;5.75;5.75;;;;;;;;5074041;27;45493;-61
2023/04/04 00:29:00;;;;;;;;;9.00;8.00;;;;;;;;5073659;27;46072;-61
2023/04/04 00:31:26;;;;;;;;;7.00;5.25;;;;;;;;5073637;27;45624;-62
2023/04/04 00:33:51;;;;;;;;;7.00;5.50;;;;;;;;5074161;27;45513;-61
2023/04/04 00:36:17;;;;;;;;;7.25;7.00;;;;;;;;5073391;27;45422;-61
2023/04/04 00:38:42;;;;;;;;;6.00;6.00;;;;;;;;5073828;27;45465;-61
2023/04/04 00:41:07;;;;;;;;;5.00;5.00;;;;;;;;5073979;27;45447;-61
2023/04/04 00:43:33;;;;;;;;;8.50;5.00;;;;;;;;5074159;27;45472;-61
2023/04/04 00:45:58;;;;;;;;;5.75;5.75;;;;;;;;5073610;27;45604;-61
2023/04/04 00:48:24;;;;;;;;;7.00;6.00;;;;;;;;5073352;28;46174;-61
2023/04/04 00:50:49;;;;;;;;;8.00;6.00;;;;;;;;5072122;27;45550;-61
2023/04/04 00:53:14;;;;;;;;;7.00;5.75;;;;;;;;5072748;27;45522;-61
2023/04/04 00:55:42;;;;;;;;;6.75;5.75;;;;;;;;5073311;28;45509;-61
2023/04/04 00:58:07;;;;;;;;;6.00;6.00;;;;;;;;5072951;27;45478;-61
2023/04/04 01:00:34;;;;;;;;;5.50;5.50;;;;;;;;5073197;27;45560;-61
2023/04/04 01:02:59;;;;;;;;;7.25;6.75;;;;;;;;5073400;27;45539;-61
2023/04/04 01:05:25;;;;;;;;;7.00;7.00;;;;;;;;5073650;27;45628;-61
2023/04/04 01:07:50;;;;;;;;;7.00;7.00;;;;;;;;5073388;27;45990;-61
2023/04/04 01:10:15;;;;;;;;;6.00;6.00;;;;;;;;5072758;28;46151;-61
2023/04/04 01:12:41;;;;;;;;;5.75;5.75;;;;;;;;5073797;27;45531;-61
2023/04/04 01:15:06;;;;;;;;;7.00;7.00;;;;;;;;5073490;27;45726;-61
2023/04/04 01:17:32;;;;;;;;;5.25;5.25;;;;;;;;5073463;27;45836;-61
2023/04/04 01:19:57;;;;;;;;;6.25;6.00;;;;;;;;5074825;27;45769;-61
2023/04/04 01:22:23;;;;;;;;;6.00;6.00;;;;;;;;5072218;27;45609;-61
2023/04/04 01:24:48;;;;;;;;;6.50;6.50;;;;;;;;5073979;28;45545;-61
2023/04/04 01:27:13;;;;;;;;;7.25;6.50;;;;;;;;5076199;27;45788;-62
2023/04/04 01:29:38;;;;;;;;;7.00;6.75;;;;;;;;5076626;27;45784;-61
2023/04/04 01:32:10;;;;;;;;;5.00;5.00;;;;;;;;5077092;27;45663;-60
2023/04/04 01:34:38;;;;;;;;;8.00;8.00;;;;;;;;5076924;27;45495;-61
2023/04/04 01:37:09;;;;;;;;;7.75;7.75;;;;;;;;5076403;27;45585;-60
2023/04/04 01:39:43;;;;;;;;;7.00;7.00;;;;;;;;5064634;27;45519;-60
2023/04/04 01:42:11;;;;;;;;;6.50;5.00;;;;;;;;5076069;27;45557;-60
2023/04/04 01:44:36;;;;;;;;;4.25;4.25;;;;;;;;5075733;27;45639;-60
2023/04/04 01:47:04;;;;;;;;;5.00;5.00;;;;;;;;5075792;27;45468;-60
2023/04/04 01:49:29;;;;;;;;;7.25;7.25;;;;;;;;5073677;27;45572;-60
2023/04/04 01:51:55;;;;;;;;;6.25;6.25;;;;;;;;5075916;27;45485;-60
2023/04/04 01:54:20;;;;;;;;;7.75;6.00;;;;;;;;5075055;27;45680;-60
2023/04/04 01:56:45;;;;;;;;;5.50;5.50;;;;;;;;5075694;27;46309;-62
2023/04/04 01:59:10;;;;;;;;;7.00;5.00;;;;;;;;5074765;27;45477;-60
2023/04/04 02:01:36;;;;;;;;;9.25;9.25;;;;;;;;5075472;27;45516;-62
2023/04/04 02:04:01;;;;;;;;;7.00;7.00;;;;;;;;5075860;27;45664;-62
2023/04/04 02:06:27;;;;;;;;;7.00;7.00;;;;;;;;5075111;27;47072;-63
2023/04/04 02:08:52;;;;;;;;;6.00;5.25;;;;;;;;5075810;28;45614;-60
2023/04/04 02:11:21;;;;;;;;;7.75;7.25;;;;;;;;5076710;27;45411;-60
2023/04/04 02:13:46;;;;;;;;;5.50;5.50;;;;;;;;5063520;27;45619;-60
2023/04/04 02:16:12;;;;;;;;;7.75;5.25;;;;;;;;5075528;27;45484;-60
2023/04/04 02:18:37;;;;;;;;;4.75;4.75;;;;;;;;5069994;27;45426;-60
2023/04/04 02:21:02;;;;;;;;;5.00;5.00;;;;;;;;5074341;27;45515;-60
2023/04/04 02:23:28;;;;;;;;;6.00;6.00;;;;;;;;5075469;27;45632;-62
2023/04/04 02:25:53;;;;;;;;;8.50;5.75;;;;;;;;5073969;27;45430;-60
2023/04/04 02:28:18;;;;;;;;;6.50;6.50;;;;;;;;5074727;27;45505;-60
2023/04/04 02:30:43;;;;;;;;;5.50;5.50;;;;;;;;5074043;27;45500;-60
2023/04/04 02:33:08;;;;;;;;;4.50;4.50;;;;;;;;5076211;27;45501;-60
2023/04/04 02:35:34;;;;;;;;;5.00;5.00;;;;;;;;5075940;27;45587;-60
2023/04/04 02:37:59;;;;;;;;;7.25;7.25;;;;;;;;5075299;27;45679;-60
2023/04/04 02:40:24;;;;;;;;;4.25;4.25;;;;;;;;5068728;27;45474;-60
2023/04/04 02:42:49;;;;;;;;;7.00;6.50;;;;;;;;5071051;27;45478;-62
2023/04/04 02:45:15;;;;;;;;;9.50;7.50;;;;;;;;5075686;27;45459;-62
2023/04/04 02:47:41;;;;;;;;;7.75;7.75;;;;;;;;5075686;27;45433;-62
2023/04/04 02:50:07;;;;;;;;;7.50;6.00;;;;;;;;5075713;27;45535;-62
2023/04/04 02:52:33;;;;;;;;;3.75;3.75;;;;;;;;5074671;27;45568;-62
2023/04/04 02:54:58;;;;;;;;;6.25;6.25;;;;;;;;5074852;27;47111;-63
2023/04/04 02:57:23;;;;;;;;;7.00;7.00;;;;;;;;5075467;27;45393;-63
2023/04/04 02:59:48;;;;;;;;;5.25;5.25;;;;;;;;5075294;27;45478;-62
2023/04/04 03:02:13;;;;;;;;;5.75;5.25;;;;;;;;5075410;27;45411;-60
2023/04/04 03:04:38;;;;;;;;;6.75;6.00;;;;;;;;5075039;27;46324;-63
2023/04/04 03:07:04;;;;;;;;;7.75;5.00;;;;;;;;5073885;27;45447;-60
2023/04/04 03:09:30;;;;;;;;;9.25;6.00;;;;;;;;5074919;27;45493;-60
2023/04/04 03:11:55;;;;;;;;;7.00;7.00;;;;;;;;5075376;27;45630;-60
2023/04/04 03:14:20;;;;;;;;;6.75;6.00;;;;;;;;5075261;27;46009;-60
2023/04/04 03:16:48;;;;;;;;;6.00;6.00;;;;;;;;5073901;27;45541;-62
2023/04/04 03:19:14;;;;;;;;;7.50;6.50;;;;;;;;5075530;27;45452;-62
2023/04/04 03:21:39;;;;;;;;;5.25;5.25;;;;;;;;5073292;27;46095;-62
2023/04/04 03:24:05;;;;;;;;;6.75;6.75;;;;;;;;5074868;27;46130;-62
2023/04/04 03:26:30;;;;;;;;;7.75;7.75;;;;;;;;5074333;28;45549;-62
2023/04/04 03:28:55;;;;;;;;;6.00;6.00;;;;;;;;5075416;27;45528;-62
2023/04/04 03:31:21;;;;;;;;;6.75;6.50;;;;;;;;5074255;27;45556;-63
2023/04/04 03:33:46;;;;;;;;;9.00;7.50;;;;;;;;5074756;27;46544;-62
2023/04/04 03:36:12;;;;;;;;;8.00;7.00;;;;;;;;5074698;27;45555;-62
2023/04/04 03:38:37;;;;;;;;;8.25;8.25;;;;;;;;5075105;28;45481;-62
2023/04/04 03:41:03;;;;;;;;;9.00;7.50;;;;;;;;5074915;27;45434;-62
2023/04/04 03:43:29;;;;;;;;;6.00;5.00;;;;;;;;5073991;27;45483;-62
2023/04/04 03:45:54;;;;;;;;;6.50;6.50;;;;;;;;5074519;27;45567;-62
2023/04/04 03:48:19;;;;;;;;;6.75;6.50;;;;;;;;5074079;27;45394;-62
2023/04/04 03:50:44;;;;;;;;;6.50;6.50;;;;;;;;5073622;27;45562;-62
2023/04/04 03:53:11;;;;;;;;;8.00;8.00;;;;;;;;5073165;27;45569;-62
2023/04/04 03:55:39;;;;;;;;;10.00;8.00;;;;;;;;5074816;27;45508;-62
2023/04/04 03:58:04;;;;;;;;;7.00;7.00;;;;;;;;5074670;27;45516;-62
2023/04/04 04:00:29;;;;;;;;;6.25;6.25;;;;;;;;5066738;27;45509;-62
2023/04/04 04:02:55;;;;;;;;;7.00;5.00;;;;;;;;5074467;27;46253;-63
2023/04/04 04:05:20;;;;;;;;;7.00;7.00;;;;;;;;5074468;27;45709;-62
2023/04/04 04:07:45;;;;;;;;;9.25;8.50;;;;;;;;5073225;28;45742;-62
2023/04/04 04:10:12;;;;;;;;;6.00;6.00;;;;;;;;5074580;27;45500;-62
2023/04/04 04:12:38;;;;;;;;;6.25;6.25;;;;;;;;5074481;27;46106;-62
2023/04/04 04:15:03;;;;;;;;;9.25;7.00;;;;;;;;5074208;27;45475;-62
2023/04/04 04:17:28;;;;;;;;;7.00;6.75;;;;;;;;5073507;27;46081;-62
2023/04/04 04:19:53;;;;;;;;;7.75;6.25;;;;;;;;5074629;27;45592;-62
2023/04/04 04:22:19;;;;;;;;;6.50;5.75;;;;;;;;5074105;27;45995;-62
2023/04/04 04:24:44;;;;;;;;;5.50;5.00;;;;;;;;5074158;27;45539;-62
2023/04/04 04:27:09;;;;;;;;;4.75;4.75;;;;;;;;5074594;27;45400;-62
2023/04/04 04:29:35;;;;;;;;;6.50;5.25;;;;;;;;5073963;27;45592;-62
2023/04/04 04:32:01;;;;;;;;;4.75;4.75;;;;;;;;5073785;28;45881;-62
2023/04/04 04:34:26;;;;;;;;;6.25;4.75;;;;;;;;5069706;27;45604;-62
2023/04/04 04:36:52;;;;;;;;;6.75;6.75;;;;;;;;5072982;27;45536;-62
2023/04/04 04:39:17;;;;;;;;;9.00;7.25;;;;;;;;5075121;27;46107;-62
2023/04/04 04:41:43;;;;;;;;;8.50;8.50;;;;;;;;5073587;27;45545;-62
2023/04/04 04:44:08;;;;;;;;;6.00;5.00;;;;;;;;5073500;27;45515;-62
2023/04/04 04:46:33;;;;;;;;;5.00;5.00;;;;;;;;5073552;28;45499;-62
2023/04/04 04:48:58;;;;;;;;;7.50;5.75;;;;;;;;5073471;27;45420;-63
2023/04/04 04:51:24;;;;;;;;;7.50;6.00;;;;;;;;5071364;27;45959;-62
2023/04/04 04:53:49;;;;;;;;;6.00;6.00;;;;;;;;5070240;27;45493;-62
2023/04/04 04:56:14;;;;;;;;;7.25;7.25;;;;;;;;5071277;27;45512;-62
2023/04/04 04:58:40;;;;;;;;;5.00;5.00;;;;;;;;5073485;27;45672;-62
2023/04/04 05:01:05;;;;;;;;;6.50;6.00;;;;;;;;5072827;28;45413;-62
2023/04/04 05:03:30;;;;;;;;;8.50;8.50;;;;;;;;5073318;27;45445;-62
2023/04/04 05:05:56;;;;;;;;;6.00;6.00;;;;;;;;5073617;27;45611;-62
2023/04/04 05:08:21;;;;;;;;;4.25;4.25;;;;;;;;5071029;27;45521;-62
2023/04/04 05:13:49;;;;;;;;;4.50;4.25;;;;;;;;5073339;27;45463;-62
2023/04/04 05:16:15;;;;;;;;;7.25;7.25;;;;;;;;5073182;27;45536;-62
2023/04/04 05:18:40;;;;;;;;;7.25;7.25;;;;;;;;5073385;28;45537;-62
2023/04/04 05:21:06;;;;;;;;;5.25;5.25;;;;;;;;5073069;27;45516;-62
2023/04/04 05:23:31;;;;;;;;;4.50;4.00;;;;;;;;5073201;27;45496;-62
2023/04/04 05:25:56;;;;;;;;;5.25;5.00;;;;;;;;5072575;27;45570;-62
2023/04/04 05:28:22;;;;;;;;;8.75;6.00;;;;;;;;5073062;27;45627;-62
2023/04/04 05:30:47;;;;;;;;;5.25;5.25;;;;;;;;5072685;27;46227;-62
2023/04/04 05:33:12;;;;;;;;;7.75;7.75;;;;;;;;5072640;27;45596;-62
2023/04/04 05:35:38;;;;;;;;;6.00;5.75;;;;;;;;5073527;27;45518;-62
2023/04/04 05:38:03;;;;;;;;;4.75;4.75;;;;;;;;5072036;27;45610;-63
2023/04/04 05:40:28;;;;;;;;;8.75;8.25;;;;;;;;5069525;27;45528;-62
2023/04/04 05:42:57;;;;;;;;;6.25;6.25;;;;;;;;5072681;27;45482;-64
2023/04/04 05:45:23;;;;;;;;;5.50;4.25;;;;;;;;5073265;27;45445;-64
2023/04/04 05:47:48;;;;;;;;;5.50;5.00;;;;;;;;5073066;27;45668;-64
2023/04/04 05:50:13;;;;;;;;;7.00;5.75;;;;;;;;5073101;27;46099;-64
2023/04/04 05:52:38;;;;;;;;;5.25;4.25;;;;;;;;5073006;27;45538;-65
2023/04/04 05:55:04;;;;;;;;;6.25;6.25;;;;;;;;5064007;28;45561;-64
2023/04/04 05:57:29;;;;;;;;;5.00;5.00;;;;;;;;5072847;27;45464;-64
2023/04/04 05:59:54;;;;;;;;;7.00;7.00;;;;;;;;5072148;28;45553;-64
2023/04/04 06:02:20;;;;;;;;;4.50;4.50;;;;;;;;5069922;27;45564;-64
2023/04/04 06:04:45;;;;;;;;;9.00;8.00;;;;;;;;5053735;28;45542;-64
2023/04/04 06:07:10;;;;;;;;;6.75;6.75;;;;;;;;5072627;27;45530;-65
2023/04/04 06:09:35;;;;;;;;;6.50;5.75;;;;;;;;5072612;28;46036;-65
2023/04/04 06:12:03;;;;;;;;;6.00;6.00;;;;;;;;5073447;27;45464;-67
2023/04/04 06:14:28;;;;;;;;;6.25;5.75;;;;;;;;5075419;27;45434;-67
2023/04/04 06:16:54;;;;;;;;;8.00;8.00;;;;;;;;5074402;27;45601;-64
2023/04/04 06:19:19;;;;;;;;;6.50;6.50;;;;;;;;5070227;28;45578;-68
2023/04/04 06:21:45;;;;;;;;;4.00;4.00;;;;;;;;5074798;27;45434;-69
2023/04/04 06:24:10;;;;;;;;;5.75;5.75;;;;;;;;5070622;27;45553;-70
2023/04/04 06:26:35;;;;;;;;;6.25;6.25;;;;;;;;5075812;27;45620;-68
2023/04/04 06:29:00;;;;;;;;;5.00;4.00;;;;;;;;5074295;27;45953;-69
2023/04/04 06:31:26;;;;;;;;;7.25;7.25;;;;;;;;5061246;27;45478;-59
2023/04/04 06:33:51;;;;;;;;;9.00;8.75;;;;;;;;5073686;27;45733;-50
2023/04/04 06:36:16;;;;;;;;;8.00;8.00;;;;;;;;5067569;27;45677;-55
2023/04/04 06:38:41;;;;;;;;;6.75;6.75;;;;;;;;5069991;27;45535;-58
2023/04/04 06:41:06;;;;;;;;;9.00;9.00;;;;;;;;5075658;28;45647;-55
2023/04/04 06:43:31;;;;;;;;;6.00;6.00;;;;;;;;5072770;27;45526;-56
2023/04/04 06:45:57;;;;;;;;;6.50;6.50;;;;;;;;5075218;27;45562;-58
2023/04/04 06:48:22;;;;;;;;;8.00;5.75;;;;;;;;5075457;27;45879;-58
2023/04/04 06:50:48;;;;;;;;;6.75;5.75;;;;;;;;5072208;27;45514;-57
2023/04/04 06:53:13;;;;;;;;;5.75;5.00;;;;;;;;5075397;27;45467;-55
2023/04/04 06:55:38;;;;;;;;;8.00;7.75;;;;;;;;5072985;27;45597;-56
2023/04/04 06:58:03;;;;;;;;;9.50;7.25;;;;;;;;5075319;27;46170;-58
2023/04/04 07:00:29;;;;;;;;;10.25;10.00;;;;;;;;5073860;27;45615;-54
2023/04/04 07:03:00;;;;;;;;;9.00;9.00;;;;;;;;5075515;27;45595;-57
2023/04/04 07:05:25;;;;;;;;;7.00;7.00;;;;;;;;5074944;27;45470;-56
2023/04/04 07:07:53;;;;;;;;;5.00;5.00;;;;;;;;5074705;27;45480;-56
2023/04/04 07:10:18;;;;;;;;;9.50;8.25;;;;;;;;5073846;27;45526;-55
2023/04/04 07:12:43;;;;;;;;;5.75;5.75;;;;;;;;5074415;27;45480;-56
2023/04/04 07:15:09;;;;;;;;;4.00;4.00;;;;;;;;5075428;27;45549;-58
2023/04/04 07:17:36;;;;;;;;;6.75;6.75;;;;;;;;5074809;27;46356;-56
2023/04/04 07:20:01;;;;;;;;;9.00;9.00;;;;;;;;5073633;27;45531;-55
2023/04/04 07:22:27;;;;;;;;;8.25;7.25;;;;;;;;5074035;28;45489;-55
2023/04/04 07:24:53;;;;;;;;;6.25;5.00;;;;;;;;5075187;27;45543;-55
2023/04/04 07:27:18;;;;;;;;;8.50;7.25;;;;;;;;5073381;27;48116;-56
2023/04/04 07:29:43;;;;;;;;;7.75;7.75;;;;;;;;5073489;27;45636;-56
2023/04/04 07:32:09;;;;;;;;;10.00;7.25;;;;;;;;5074812;27;45527;-58
2023/04/04 07:34:34;;;;;;;;;10.25;10.00;;;;;;;;5074821;27;45465;-56
2023/04/04 07:36:59;;;;;;;;;7.25;7.25;;;;;;;;5075020;27;46368;-57
2023/04/04 07:39:25;;;;;;;;;9.25;5.00;;;;;;;;5075064;27;45396;-58
2023/04/04 07:41:50;;;;;;;;;9.50;9.50;;;;;;;;5075014;27;45576;-56
2023/04/04 07:44:15;;;;;;;;;8.50;8.00;;;;;;;;5074656;28;45656;-58
2023/04/04 07:46:41;;;;;;;;;10.00;9.00;;;;;;;;5074618;28;46068;-55
2023/04/04 07:49:06;;;;;;;;;6.00;6.00;;;;;;;;5074446;27;45520;-55
2023/04/04 07:51:31;;;;;;;;;7.00;6.25;;;;;;;;5074709;27;45582;-56
2023/04/04 07:53:57;;;;;;;;;7.75;6.25;;;;;;;;5074683;28;45682;-58
2023/04/04 07:56:22;;;;;;;;;4.50;4.50;;;;;;;;5074266;27;46139;-56
2023/04/04 07:58:47;;;;;;;;;11.50;11.00;;;;;;;;5074192;27;45571;-58
2023/04/04 08:01:12;;;;;;;;;9.75;8.50;;;;;;;;5074381;27;45672;-57
2023/04/04 08:03:37;;;;;;;;;9.50;9.50;;;;;;;;5074101;27;46049;-56
2023/04/04 08:06:03;;;;;;;;;9.00;8.75;;;;;;;;5074061;27;45425;-54
2023/04/04 08:08:28;;;;;;;;;9.50;8.00;;;;;;;;5074023;27;45455;-57
2023/04/04 08:10:53;;;;;;;;;8.00;8.00;;;;;;;;5074263;27;45869;-56
2023/04/04 08:13:19;;;;;;;;;8.75;7.75;;;;;;;;5074570;27;45535;-56
2023/04/04 08:15:44;;;;;;;;;9.50;9.00;;;;;;;;5074243;27;45610;-57
2023/04/04 08:18:09;;;;;;;;;9.25;6.25;;;;;;;;5074204;27;45552;-57
2023/04/04 08:20:35;;;;;;;;;8.75;8.75;;;;;;;;5074342;28;45392;-56
2023/04/04 08:23:00;;;;;;;;;8.25;8.25;;;;;;;;5074412;27;45433;-54
2023/04/04 08:25:25;;;;;;;;;7.75;7.25;;;;;;;;5073932;27;46209;-57
2023/04/04 08:27:51;;;;;;;;;6.00;6.00;;;;;;;;5073876;27;45487;-56
2023/04/04 08:30:16;;;;;;;;;6.75;5.50;;;;;;;;5073946;27;45399;-57
2023/04/04 08:32:44;;;;;;;;;9.50;7.50;;;;;;;;5073778;27;45763;-55
2023/04/04 08:35:10;;;;;;;;;10.00;10.00;;;;;;;;5073774;27;45567;-54
2023/04/04 08:37:36;;;;;;;;;7.25;7.25;;;;;;;;5073647;27;45626;-56
2023/04/04 08:40:02;;;;;;;;;9.00;7.75;;;;;;;;5072314;27;45418;-57
2023/04/04 08:42:29;;;;;;;;;9.00;7.00;;;;;;;;5073951;27;45494;-58
2023/04/04 08:44:56;;;;;;;;;9.50;8.25;;;;;;;;5073400;28;45463;-58
2023/04/04 08:47:23;;;;;;;;;9.50;8.25;;;;;;;;5073634;27;45630;-58
2023/04/04 08:49:48;;;;;;;;;11.00;10.25;;;;;;;;5073506;27;45450;-57
2023/04/04 08:52:14;;;;;;;;;10.50;9.25;;;;;;;;5073589;28;45472;-58
2023/04/04 08:54:40;;;;;;;;;9.50;9.50;;;;;;;;5073324;27;45586;-55
2023/04/04 08:57:07;;;;;;;;;8.25;8.25;;;;;;;;5073730;27;45483;-55
2023/04/04 08:59:33;;;;;;;;;9.00;9.00;;;;;;;;5073771;27;45559;-54
2023/04/04 09:02:04;;;;;;;;;10.00;10.00;;;;;;;;5073575;28;45518;-57
2023/04/04 09:04:30;;;;;;;;;11.00;11.00;;;;;;;;5073201;27;46063;-53
2023/04/04 09:06:57;;;;;;;;;9.50;7.50;;;;;;;;5073639;28;45421;-55
2023/04/04 09:09:23;;;;;;;;;14.75;14.75;;;;;;;;5073328;27;45452;-55
2023/04/04 09:11:50;;;;;;;;;12.75;11.00;;;;;;;;5072156;28;45489;-56
2023/04/04 09:14:15;;;;;;;;;7.00;7.00;;;;;;;;5071879;27;46216;-55
2023/04/04 09:16:41;;;;;;;;;12.00;10.25;;;;;;;;5073293;28;45533;-57
2023/04/04 09:22:28;;;;;;;;;7.00;7.00;;;;;;;;5074775;27;45413;-55
2023/04/04 09:24:53;;;;;;;;;8.50;8.50;;;;;;;;5073122;27;46035;-58
2023/04/04 09:27:19;;;;;;;;;6.50;6.50;;;;;;;;5054719;27;45513;-54
2023/04/04 09:29:44;;;;;;;;;8.50;8.50;;;;;;;;5073339;27;45472;-54
2023/04/04 09:32:13;;;;;;;;;10.25;9.00;;;;;;;;5072781;27;45472;-56
2023/04/04 09:34:38;;;;;;;;;5.50;5.50;;;;;;;;5072954;28;45655;-55
2023/04/04 09:37:04;;;;;;;;;7.25;7.25;;;;;;;;5073069;27;45484;-54
2023/04/04 09:39:30;;;;;;;;;7.00;7.00;;;;;;;;5073231;28;45576;-56
2023/04/04 09:41:56;;;;;;;;;6.00;6.00;;;;;;;;5073273;27;45488;-57
2023/04/04 09:44:22;;;;;;;;;10.75;6.25;;;;;;;;5072817;27;46141;-57
2023/04/04 09:46:50;;;;;;;;;8.25;6.50;;;;;;;;5075015;27;45488;-56
2023/04/04 09:49:22;;;;;;;;;8.00;7.50;;;;;;;;5076428;27;45543;-54
2023/04/04 09:51:51;;;;;;;;;6.00;6.00;;;;;;;;5063031;28;45568;-54
2023/04/04 09:54:20;;;;;;;;;5.00;5.00;;;;;;;;5076317;27;45492;-54
2023/04/04 09:56:46;;;;;;;;;6.25;6.00;;;;;;;;5076376;27;45569;-55
2023/04/04 09:59:11;;;;;;;;;6.00;6.00;;;;;;;;5076360;27;45576;-55
2023/04/04 10:01:36;;;;;;;;;6.50;6.00;;;;;;;;5076389;27;45422;-57
2023/04/04 10:04:02;;;;;;;;;8.50;7.00;;;;;;;;5074237;27;47769;-57
2023/04/04 10:06:28;;;;;;;;;10.50;10.50;;;;;;;;5076379;27;45436;-57
2023/04/04 10:08:55;;;;;;;;;6.00;6.00;;;;;;;;5076066;27;45528;-57
2023/04/04 10:11:33;;;;;;;;;5.50;4.00;;;;;;;;5074604;27;45568;-56
2023/04/04 10:13:58;;;;;;;;;11.25;7.75;;;;;;;;5075738;27;45454;-53
2023/04/04 10:16:25;;;;;;;;;7.00;7.00;;;;;;;;5075703;27;45402;-56
2023/04/04 10:18:51;;;;;;;;;8.50;8.50;;;;;;;;5075830;27;45465;-55
2023/04/04 10:21:16;;;;;;;;;8.00;8.00;;;;;;;;5075620;27;45608;-56
2023/04/04 10:23:44;;;;;;;;;6.50;6.50;;;;;;;;5075374;27;45917;-57
2023/04/04 10:26:09;;;;;;;;;8.50;8.50;;;;;;;;5074225;27;45572;-56
2023/04/04 10:28:35;;;;;;;;;8.50;8.50;;;;;;;;5075588;27;45526;-54
2023/04/04 10:31:20;;;;;;;;;6.75;6.75;;;;;;;;5075458;27;45544;-54
2023/04/04 10:34:03;;;;;;;;;7.25;7.25;;;;;;;;5075512;27;45418;-57
2023/04/04 10:36:45;;;;;;;;;8.75;8.75;;;;;;;;5061380;27;45461;-59
2023/04/04 10:39:17;;;;;;;;;11.50;10.50;;;;;;;;5075593;28;45422;-56
2023/04/04 10:41:44;;;;;;;;;8.25;8.25;;;;;;;;5073770;27;45499;-56
2023/04/04 10:44:29;;;;;;;;;7.00;7.00;;;;;;;;5075154;27;46385;-55
2023/04/04 10:46:57;;;;;;;;;10.00;10.00;;;;;;;;5063356;27;45451;-55
2023/04/04 10:49:22;;;;;;;;;10.25;10.25;;;;;;;;5075437;27;45542;-56
2023/04/04 10:51:48;;;;;;;;;7.75;7.75;;;;;;;;5075069;27;45478;-57
2023/04/04 10:54:13;;;;;;;;;6.00;6.00;;;;;;;;5075233;27;46279;-55
2023/04/04 10:56:39;;;;;;;;;6.75;6.75;;;;;;;;5074775;27;45551;-56
2023/04/04 10:59:12;;;;;;;;;8.25;8.00;;;;;;;;5074295;27;45590;-57
2023/04/04 11:01:48;;;;;;;;;6.50;6.50;;;;;;;;5073390;27;45467;-55
2023/04/04 11:04:17;;;;;;;;;11.25;9.00;;;;;;;;5061237;27;45517;-56
2023/04/04 11:07:01;;;;;;;;;9.50;9.50;;;;;;;;5074839;27;45522;-56
2023/04/04 11:09:45;;;;;;;;;7.50;7.50;;;;;;;;5062144;27;45544;-56
2023/04/04 11:12:14;;;;;;;;;2.00;2.00;;;;;;;;5074900;27;45553;-53
2023/04/04 11:14:53;;;;;;;;;10.00;8.75;;;;;;;;5074810;27;46069;-55
2023/04/04 11:17:23;;;;;;;;;9.00;7.00;;;;;;;;5074702;27;45515;-56
2023/04/04 11:19:58;;;;;;;;;8.00;7.00;;;;;;;;5074843;27;45544;-55
2023/04/04 11:22:23;;;;;;;;;10.50;8.25;;;;;;;;5072554;27;45618;-57
2023/04/04 11:24:57;;;;;;;;;8.00;6.75;;;;;;;;5074092;27;46455;-60
2023/04/04 11:27:22;;;;;;;;;8.25;8.25;;;;;;;;5075309;27;45521;-58
2023/04/04 11:29:48;;;;;;;;;8.00;8.00;;;;;;;;5053046;28;45404;-60
2023/04/04 11:32:28;;;;;;;;;8.25;6.00;;;;;;;;5068786;27;45521;-59
2023/04/04 11:34:55;;;;;;;;;16.75;15.50;;;;;;;;5071131;27;45515;-60
2023/04/04 11:37:21;;;;;;;;;9.25;7.25;;;;;;;;5074142;27;45537;-59
2023/04/04 11:39:56;;;;;;;;;9.75;9.75;;;;;;;;5073761;27;45552;-60
2023/04/04 11:42:21;;;;;;;;;8.50;7.00;;;;;;;;5062942;27;45539;-58
2023/04/04 11:44:49;;;;;;;;;9.75;9.25;;;;;;;;5073951;27;45508;-59
2023/04/04 11:47:18;;;;;;;;;8.00;7.25;;;;;;;;5075309;27;45457;-59
2023/04/04 11:49:45;;;;;;;;;8.00;8.00;;;;;;;;5072440;27;45526;-59
2023/04/04 11:52:12;;;;;;;;;9.25;9.25;;;;;;;;5075269;28;45477;-59
2023/04/04 11:54:38;;;;;;;;;11.25;8.00;;;;;;;;5074893;27;46187;-58
2023/04/04 11:57:07;;;;;;;;;8.33;8.33;;;;;;;;5074537;27;45501;-59
2023/04/04 11:59:33;;;;;;;;;10.33;9.67;;;;;;;;5075169;27;45465;-58
2023/04/04 12:02:00;;;;;;;;;7.75;7.75;;;;;;;;5075388;28;45500;-59
2023/04/04 12:04:26;;;;;;;;;9.00;9.00;;;;;;;;5074316;27;45541;-58
2023/04/04 12:06:52;;;;;;;;;11.75;10.50;;;;;;;;5074545;28;45442;-59
2023/04/04 12:09:19;;;;;;;;;13.00;11.75;;;;;;;;5074225;27;45524;-59
2023/04/04 12:11:44;;;;;;;;;10.25;10.25;;;;;;;;5073271;27;45590;-58
2023/04/04 12:14:17;;;;;;;;;10.50;10.50;;;;;;;;5074232;27;45672;-58
2023/04/04 12:16:42;;;;;;;;;10.25;10.25;;;;;;;;5074722;27;45420;-59
2023/04/04 12:19:08;;;;;;;;;10.00;10.00;;;;;;;;5074371;27;45568;-59
2023/04/04 12:21:33;;;;;;;;;10.00;10.00;;;;;;;;5072956;27;45668;-58
2023/04/04 12:23:58;;;;;;;;;12.00;12.00;;;;;;;;5073810;27;45571;-57
2023/04/04 12:26:28;;;;;;;;;8.50;8.50;;;;;;;;5073261;27;45552;-58
2023/04/04 12:28:55;;;;;;;;;10.50;10.50;;;;;;;;5074570;27;45523;-61
2023/04/04 12:31:21;;;;;;;;;8.00;8.00;;;;;;;;5074093;27;45611;-59
2023/04/04 12:33:46;;;;;;;;;10.67;10.67;;;;;;;;5071484;27;46623;-56
2023/04/04 12:36:11;;;;;;;;;8.33;8.33;;;;;;;;5074248;27;46092;-60
2023/04/04 12:38:56;;;;;;;;;12.33;9.67;;;;;;;;5074466;28;45351;-59
2023/04/04 12:41:22;;;;;;;;;9.00;9.00;;;;;;;;5074249;27;45571;-58
2023/04/04 12:43:47;;;;;;;;;10.67;9.00;;;;;;;;5073867;27;46199;-60
2023/04/04 12:46:12;;;;;;;;;7.67;7.67;;;;;;;;5074051;27;45464;-58
2023/04/04 12:48:37;;;;;;;;;8.00;8.00;;;;;;;;5074255;27;45562;-58
2023/04/04 12:51:03;;;;;;;;;8.33;8.33;;;;;;;;5073876;28;45680;-58
2023/04/04 12:53:29;;;;;;;;;7.00;7.00;;;;;;;;5073903;27;47170;-58
2023/04/04 12:55:55;;;;;;;;;11.00;11.00;;;;;;;;5074057;27;45479;-59
2023/04/04 12:58:21;;;;;;;;;8.00;7.00;;;;;;;;5073904;28;45432;-60
2023/04/04 13:00:48;;;;;;;;;8.33;8.33;;;;;;;;5073612;27;45519;-60
2023/04/04 13:03:15;;;;;;;;;12.33;9.33;;;;;;;;5073884;27;46420;-59
2023/04/04 13:05:41;;;;;;;;;8.00;7.00;;;;;;;;5073538;27;45536;-59
2023/04/04 13:08:08;;;;;;;;;9.33;9.33;;;;;;;;5074057;27;45541;-59
2023/04/04 13:10:52;;;;;;;;;7.00;7.00;;;;;;;;5073776;27;45560;-60
2023/04/04 13:13:49;;;;;;;;;11.00;10.00;;;;;;;;5073654;27;46938;-57
2023/04/04 13:16:36;;;;;;;;;12.00;8.50;;;;;;;;5038998;27;45597;-60
2023/04/04 13:19:02;;;;;;;;;9.33;9.33;;;;;;;;5073512;28;45543;-59
2023/04/04 13:21:27;;;;;;;;;11.67;9.67;;;;;;;;5075346;27;45506;-60
2023/04/04 13:23:53;;;;;;;;;9.67;9.33;;;;;;;;5077094;27;45500;-59
2023/04/04 13:26:18;;;;;;;;;9.00;9.00;;;;;;;;5077033;27;45478;-60
2023/04/04 13:28:43;;;;;;;;;10.00;9.00;;;;;;;;5075987;27;45458;-59
2023/04/04 13:31:12;;;;;;;;;9.33;9.33;;;;;;;;5076921;27;45476;-59
2023/04/04 13:33:37;;;;;;;;;8.00;8.00;;;;;;;;5077166;28;45504;-60
2023/04/04 13:36:03;;;;;;;;;10.33;10.33;;;;;;;;5077019;27;45514;-59
2023/04/04 13:38:29;;;;;;;;;13.33;12.00;;;;;;;;5077238;27;45520;-59
2023/04/04 13:40:56;;;;;;;;;7.00;7.00;;;;;;;;5075691;27;45514;-58
2023/04/04 13:43:21;;;;;;;;;8.67;8.67;;;;;;;;5076713;27;45504;-57
2023/04/04 13:45:46;;;;;;;;;9.00;9.00;;;;;;;;5076433;27;45575;-57
2023/04/04 13:48:12;;;;;;;;;7.00;7.00;;;;;;;;5076658;27;45491;-59
2023/04/04 13:50:38;;;;;;;;;7.67;7.00;;;;;;;;5076403;27;45452;-59
2023/04/04 13:53:03;;;;;;;;;10.33;9.33;;;;;;;;5076465;27;46148;-64
2023/04/04 13:55:29;;;;;;;;;11.67;9.00;;;;;;;;5076779;27;45479;-61
2023/04/04 13:57:54;;;;;;;;;7.33;7.33;;;;;;;;5076850;27;45410;-60
2023/04/04 14:00:20;;;;;;;;;10.00;9.00;;;;;;;;5076832;27;45506;-60
2023/04/04 14:02:47;;;;;;;;;8.67;8.67;;;;;;;;5076827;27;45954;-60
2023/04/04 14:05:13;;;;;;;;;9.00;9.00;;;;;;;;5076694;28;45453;-60
2023/04/04 14:07:38;;;;;;;;;7.33;7.00;;;;;;;;5076898;27;45488;-60
2023/04/04 14:10:04;;;;;;;;;6.67;6.67;;;;;;;;5076587;27;45477;-58
2023/04/04 14:12:29;;;;;;;;;9.00;9.00;;;;;;;;5076346;27;46286;-58
2023/04/04 14:14:54;;;;;;;;;7.67;7.67;;;;;;;;5076322;27;45421;-59
2023/04/04 14:17:20;;;;;;;;;10.00;8.67;;;;;;;;5076340;27;45576;-60
2023/04/04 14:19:45;;;;;;;;;10.00;9.33;;;;;;;;5075111;27;45581;-60
2023/04/04 14:22:10;;;;;;;;;8.67;7.67;;;;;;;;5075978;27;45483;-60
2023/04/04 14:24:35;;;;;;;;;9.00;9.00;;;;;;;;5076419;27;45431;-57
2023/04/04 14:27:01;;;;;;;;;6.00;6.00;;;;;;;;5076438;27;45411;-58
2023/04/04 14:29:26;;;;;;;;;9.33;9.33;;;;;;;;5076249;27;45379;-60
2023/04/04 14:31:51;;;;;;;;;8.00;7.00;;;;;;;;5075638;27;45510;-59
2023/04/04 14:34:16;;;;;;;;;9.00;7.67;;;;;;;;5076033;27;45352;-59
2023/04/04 14:36:41;;;;;;;;;8.33;8.33;;;;;;;;5076443;27;45510;-59
2023/04/04 14:39:07;;;;;;;;;9.00;8.00;;;;;;;;5076372;27;45647;-59
2023/04/04 14:41:32;;;;;;;;;9.00;8.00;;;;;;;;5061903;28;45520;-59
2023/04/04 14:43:57;;;;;;;;;6.67;6.67;;;;;;;;5076194;27;45592;-60